Time;durP1;ratioP1;P1;durP2;ratioP2;P2;SDS_P1;SDS_P2;PMS_P1;PMS_P2;Temp;Humidity;BMP_temperature;BMP_pressure;BME280_temperature;BME280_humidity;BME280_pressure;Samples;Min_cycle;Max_cycle;Signal;HPM_P1;HPM_P2
2023/08/01 00:04:22;;;;;;;10.70;9.82;;;;;;;;;;10192982;28;20053;-73
2023/08/01 00:09:18;;;;;;;10.30;9.40;;;;;;;;;;10203177;28;20058;-73
2023/08/01 00:14:14;;;;;;;10.82;9.93;;;;;;;;;;10209564;28;20045;-73
2023/08/01 00:19:12;;;;;;;10.80;9.85;;;;;;;;;;10159596;28;20456;-73
2023/08/01 00:24:12;;;;;;;9.57;8.88;;;;;;;;;;10171582;28;20104;-72
2023/08/01 00:29:11;;;;;;;10.88;9.98;;;;;;;;;;10142569;28;20058;-72
2023/08/01 00:34:10;;;;;;;11.00;10.20;;;;;;;;;;10176532;28;20056;-72
2023/08/01 00:39:06;;;;;;;10.77;10.07;;;;;;;;;;10238819;28;20517;-73
2023/08/01 00:44:03;;;;;;;11.32;10.48;;;;;;;;;;10205111;28;20053;-73
2023/08/01 00:49:00;;;;;;;11.27;10.57;;;;;;;;;;10232877;23;20566;-72
2023/08/01 00:53:57;;;;;;;10.75;9.98;;;;;;;;;;10195350;28;20433;-73
2023/08/01 00:58:53;;;;;;;11.35;10.45;;;;;;;;;;10194418;28;20050;-73
2023/08/01 01:03:50;;;;;;;10.60;9.88;;;;;;;;;;10170190;28;20411;-73
2023/08/01 01:08:46;;;;;;;11.43;10.57;;;;;;;;;;10203171;28;20058;-73
2023/08/01 01:13:43;;;;;;;11.57;10.77;;;;;;;;;;10167579;28;20588;-73
2023/08/01 01:18:40;;;;;;;12.05;11.15;;;;;;;;;;10166950;28;20046;-72
2023/08/01 01:23:37;;;;;;;11.30;10.40;;;;;;;;;;10165714;28;20045;-72
2023/08/01 01:28:35;;;;;;;11.88;10.98;;;;;;;;;;10236785;28;20115;-73
2023/08/01 01:33:32;;;;;;;12.57;11.48;;;;;;;;;;10186397;28;20539;-72
2023/08/01 01:38:37;;;;;;;13.05;11.95;;;;;;;;;;10227725;22;20113;-72
2023/08/01 01:43:33;;;;;;;12.90;11.90;;;;;;;;;;10189346;28;20049;-73
2023/08/01 01:48:30;;;;;;;13.52;12.52;;;;;;;;;;10190672;28;20053;-72
2023/08/01 01:53:29;;;;;;;13.70;12.50;;;;;;;;;;10197693;28;20065;-72
2023/08/01 01:58:26;;;;;;;14.27;13.07;;;;;;;;;;10155262;28;20065;-72
2023/08/01 02:03:22;;;;;;;15.05;13.75;;;;;;;;;;10171827;28;20401;-72
2023/08/01 02:08:18;;;;;;;14.55;13.38;;;;;;;;;;10235751;28;20060;-72
2023/08/01 02:13:14;;;;;;;14.93;13.73;;;;;;;;;;10189540;28;20054;-72
2023/08/01 02:18:11;;;;;;;14.48;13.27;;;;;;;;;;10235154;28;20050;-72
2023/08/01 02:23:07;;;;;;;15.95;14.55;;;;;;;;;;10183848;28;20519;-72
2023/08/01 02:28:04;;;;;;;15.48;13.88;;;;;;;;;;10161754;28;20077;-72
2023/08/01 02:33:00;;;;;;;16.00;13.75;;;;;;;;;;10154111;28;20050;-72
2023/08/01 02:37:57;;;;;;;15.43;14.15;;;;;;;;;;10160438;28;20416;-72
2023/08/01 02:42:53;;;;;;;15.60;14.20;;;;;;;;;;10154678;28;20057;-72
2023/08/01 02:54:29;;;;;;;17.90;16.17;;;;;;;;;;10219758;28;20475;-72
2023/08/01 02:59:25;;;;;;;16.90;15.50;;;;;;;;;;10230310;28;20465;-72
2023/08/01 03:04:21;;;;;;;19.00;17.33;;;;;;;;;;10214213;28;20057;-72
2023/08/01 03:09:36;;;;;;;19.33;17.55;;;;;;;;;;10233198;28;20049;-72
2023/08/01 03:14:32;;;;;;;17.67;16.08;;;;;;;;;;10212433;28;20080;-72
2023/08/01 03:19:28;;;;;;;17.90;16.20;;;;;;;;;;10194272;28;20034;-72
2023/08/01 03:24:24;;;;;;;17.23;15.63;;;;;;;;;;10204700;28;20060;-72
2023/08/01 03:29:21;;;;;;;18.63;16.92;;;;;;;;;;10214009;28;20108;-71
2023/08/01 03:34:17;;;;;;;17.90;16.02;;;;;;;;;;10203357;28;20053;-72
2023/08/01 03:39:13;;;;;;;17.88;16.05;;;;;;;;;;10232480;28;20502;-72
2023/08/01 03:44:10;;;;;;;19.05;17.08;;;;;;;;;;10232344;28;20085;-72
2023/08/01 03:49:06;;;;;;;18.42;16.73;;;;;;;;;;10259947;23;20056;-72
2023/08/01 03:54:02;;;;;;;19.92;18.02;;;;;;;;;;10216959;28;20061;-72
2023/08/01 03:59:12;;;;;;;19.70;16.40;;;;;;;;;;10354190;23;20061;-72
2023/08/01 04:04:09;;;;;;;17.88;16.23;;;;;;;;;;10211781;28;20045;-73
2023/08/01 04:09:08;;;;;;;17.70;15.95;;;;;;;;;;10232572;28;20062;-73
2023/08/01 04:14:05;;;;;;;16.58;15.15;;;;;;;;;;10204022;28;20045;-73
2023/08/01 04:19:01;;;;;;;17.30;15.70;;;;;;;;;;10231135;28;20056;-72
2023/08/01 04:23:57;;;;;;;17.40;15.80;;;;;;;;;;10238153;28;20072;-72
2023/08/01 04:28:54;;;;;;;19.25;16.63;;;;;;;;;;10199342;28;20073;-72
2023/08/01 04:33:50;;;;;;;18.45;16.67;;;;;;;;;;10205608;28;20053;-72
2023/08/01 04:38:46;;;;;;;18.83;17.02;;;;;;;;;;10211160;28;20073;-72
2023/08/01 04:43:43;;;;;;;19.77;17.85;;;;;;;;;;10201377;28;20045;-72
2023/08/01 04:48:39;;;;;;;19.27;17.45;;;;;;;;;;10198405;28;20538;-72
2023/08/01 04:53:35;;;;;;;19.63;17.73;;;;;;;;;;10202668;28;20045;-72
2023/08/01 04:58:31;;;;;;;20.08;18.15;;;;;;;;;;10259713;22;20128;-72
2023/08/01 05:03:28;;;;;;;19.90;18.00;;;;;;;;;;10208862;28;20041;-72
2023/08/01 05:08:24;;;;;;;19.33;17.52;;;;;;;;;;10197566;28;20054;-72
2023/08/01 05:13:20;;;;;;;17.95;16.52;;;;;;;;;;10182240;28;20046;-72
2023/08/01 05:18:17;;;;;;;18.52;16.92;;;;;;;;;;10237478;28;20088;-72
2023/08/01 05:23:13;;;;;;;20.20;18.20;;;;;;;;;;10221082;28;20050;-72
2023/08/01 05:28:10;;;;;;;20.30;18.38;;;;;;;;;;10577328;22;20057;-71
2023/08/01 05:33:07;;;;;;;18.38;16.65;;;;;;;;;;10179173;28;20108;-72
2023/08/01 05:38:03;;;;;;;19.48;17.80;;;;;;;;;;10223553;28;20065;-73
2023/08/01 05:42:59;;;;;;;20.60;18.70;;;;;;;;;;10156535;28;20054;-73
2023/08/01 05:47:56;;;;;;;17.83;15.98;;;;;;;;;;10208622;28;20053;-72
2023/08/01 05:52:52;;;;;;;19.55;17.60;;;;;;;;;;10196529;28;20053;-72
2023/08/01 05:57:52;;;;;;;17.73;15.80;;;;;;;;;;10169514;28;20500;-73
2023/08/01 06:02:48;;;;;;;17.02;15.52;;;;;;;;;;10156294;28;20057;-73
2023/08/01 06:07:45;;;;;;;15.82;14.32;;;;;;;;;;10256951;23;20112;-72
2023/08/01 06:12:42;;;;;;;16.85;15.05;;;;;;;;;;10203781;28;20434;-72
2023/08/01 06:17:38;;;;;;;15.32;13.88;;;;;;;;;;10232314;28;20407;-72
2023/08/01 06:22:34;;;;;;;15.90;14.50;;;;;;;;;;10234312;28;20049;-72
2023/08/01 06:27:30;;;;;;;16.23;14.52;;;;;;;;;;10235131;28;20407;-72
2023/08/01 06:32:27;;;;;;;15.27;13.55;;;;;;;;;;10217632;28;20112;-72
2023/08/01 06:37:43;;;;;;;14.45;13.05;;;;;;;;;;10244239;23;20492;-72
2023/08/01 06:42:41;;;;;;;15.82;14.50;;;;;;;;;;10183569;28;20053;-72
2023/08/01 06:47:37;;;;;;;14.95;13.52;;;;;;;;;;10253976;23;20503;-72
2023/08/01 06:52:33;;;;;;;14.98;13.77;;;;;;;;;;10238885;28;20049;-72
2023/08/01 07:03:22;;;;;;;16.70;15.13;;;;;;;;;;10259465;23;20054;-72
2023/08/01 07:08:21;;;;;;;16.23;14.63;;;;;;;;;;10192820;28;20041;-72
2023/08/01 07:13:19;;;;;;;15.95;14.55;;;;;;;;;;10195877;28;20743;-72
2023/08/01 07:18:15;;;;;;;12.68;11.15;;;;;;;;;;10218831;28;20133;-73
2023/08/01 07:23:12;;;;;;;12.07;10.90;;;;;;;;;;10195000;28;20061;-72
2023/08/01 07:28:08;;;;;;;11.90;10.80;;;;;;;;;;10282684;23;20064;-72
2023/08/01 07:33:04;;;;;;;13.80;12.40;;;;;;;;;;10230471;28;20049;-72
2023/08/01 07:38:00;;;;;;;10.82;9.82;;;;;;;;;;10207865;28;20057;-72
2023/08/01 07:42:59;;;;;;;12.60;11.52;;;;;;;;;;10176116;28;20104;-73
2023/08/01 07:47:56;;;;;;;15.07;11.05;;;;;;;;;;10194934;28;20157;-72
2023/08/01 07:52:52;;;;;;;11.35;10.20;;;;;;;;;;10193417;28;20100;-72
2023/08/01 07:57:48;;;;;;;11.75;10.63;;;;;;;;;;10196476;28;20079;-72
2023/08/01 08:02:45;;;;;;;12.57;11.43;;;;;;;;;;10200577;28;20516;-73
2023/08/01 08:07:42;;;;;;;12.32;11.13;;;;;;;;;;10238069;28;20045;-72
2023/08/01 08:12:38;;;;;;;11.40;10.30;;;;;;;;;;10226524;28;20053;-73
2023/08/01 08:17:35;;;;;;;11.05;9.95;;;;;;;;;;10222447;28;20100;-73
2023/08/01 08:22:31;;;;;;;10.18;9.07;;;;;;;;;;10221772;28;20420;-73
2023/08/01 08:27:27;;;;;;;15.13;9.55;;;;;;;;;;10235279;28;20475;-72
2023/08/01 08:32:24;;;;;;;10.35;9.25;;;;;;;;;;10217792;28;20053;-73
2023/08/01 08:37:20;;;;;;;11.73;9.18;;;;;;;;;;10233941;28;20061;-72
2023/08/01 08:42:18;;;;;;;10.23;9.20;;;;;;;;;;10208230;28;20053;-73
2023/08/01 08:47:16;;;;;;;11.88;10.07;;;;;;;;;;10198629;28;20500;-72
2023/08/01 08:52:13;;;;;;;13.70;10.15;;;;;;;;;;10229287;28;20580;-74
2023/08/01 09:03:16;;;;;;;12.65;10.38;;;;;;;;;;10224564;28;20087;-73
2023/08/01 09:08:36;;;;;;;12.23;9.63;;;;;;;;;;10184713;28;20512;-73
2023/08/01 09:13:33;;;;;;;11.18;9.88;;;;;;;;;;10202008;28;20049;-73
2023/08/01 09:18:29;;;;;;;11.95;9.35;;;;;;;;;;10223671;28;20364;-72
2023/08/01 09:23:27;;;;;;;14.93;13.65;;;;;;;;;;10200645;28;20053;-71
2023/08/01 09:28:23;;;;;;;15.02;13.70;;;;;;;;;;10219343;28;20543;-72
2023/08/01 09:33:20;;;;;;;15.38;14.07;;;;;;;;;;10199320;28;20088;-71
2023/08/01 09:38:16;;;;;;;15.85;14.52;;;;;;;;;;10202691;28;20041;-72
2023/08/01 09:43:13;;;;;;;15.45;14.20;;;;;;;;;;10198111;28;20127;-72
2023/08/01 09:48:10;;;;;;;14.88;13.75;;;;;;;;;;10201319;28;20770;-72
2023/08/01 09:53:07;;;;;;;16.10;14.80;;;;;;;;;;10196642;28;20050;-72
2023/08/01 09:58:04;;;;;;;14.70;13.57;;;;;;;;;;10218542;28;20060;-71
2023/08/01 10:03:03;;;;;;;13.55;12.52;;;;;;;;;;10212589;28;20058;-72
2023/08/01 10:13:05;;;;;;;10.60;9.70;;;;;;;;;;10300967;22;20049;-71
2023/08/01 10:18:03;;;;;;;9.98;9.07;;;;;;;;;;10165637;28;20105;-72
2023/08/01 10:23:00;;;;;;;8.35;7.25;;;;;;;;;;10195528;28;20512;-72
2023/08/01 10:28:00;;;;;;;7.55;6.85;;;;;;;;;;10199630;28;20094;-72
2023/08/01 10:32:57;;;;;;;8.80;8.07;;;;;;;;;;10155377;28;20054;-72
2023/08/01 10:42:59;;;;;;;9.68;8.85;;;;;;;;;;10480371;22;20049;-71
2023/08/01 10:48:08;;;;;;;12.65;11.55;;;;;;;;;;10195218;28;20511;-71
2023/08/01 10:53:08;;;;;;;11.27;10.38;;;;;;;;;;10194370;28;20093;-72
2023/08/01 10:58:08;;;;;;;11.95;11.15;;;;;;;;;;10193906;28;20049;-72
2023/08/01 11:03:04;;;;;;;14.07;12.90;;;;;;;;;;10193814;28;20062;-72
2023/08/01 11:08:02;;;;;;;11.55;10.48;;;;;;;;;;10193658;28;20133;-71
2023/08/01 11:12:59;;;;;;;10.55;9.65;;;;;;;;;;10193996;28;20057;-71
2023/08/01 11:17:55;;;;;;;8.50;7.63;;;;;;;;;;10232732;28;20534;-71
2023/08/01 11:22:53;;;;;;;9.15;8.45;;;;;;;;;;10194837;28;20755;-71
2023/08/01 11:27:49;;;;;;;12.40;11.40;;;;;;;;;;10232015;28;20427;-71
2023/08/01 11:32:46;;;;;;;11.40;10.55;;;;;;;;;;10198474;28;20046;-71
2023/08/01 11:37:51;;;;;;;12.27;11.38;;;;;;;;;;10275156;23;20500;-71
2023/08/01 11:42:50;;;;;;;15.23;13.90;;;;;;;;;;10215671;28;20466;-71
2023/08/01 11:47:47;;;;;;;13.45;12.55;;;;;;;;;;10202791;28;20077;-71
2023/08/01 11:52:46;;;;;;;12.93;12.02;;;;;;;;;;10200942;28;20128;-71
2023/08/01 11:57:50;;;;;;;15.35;14.25;;;;;;;;;;10221250;28;20550;-71
2023/08/01 12:02:50;;;;;;;13.77;12.88;;;;;;;;;;10201140;28;20100;-71
2023/08/01 12:07:46;;;;;;;15.07;14.10;;;;;;;;;;10205898;28;20116;-71
2023/08/01 12:12:43;;;;;;;13.88;12.98;;;;;;;;;;10183067;28;20042;-71
2023/08/01 12:17:40;;;;;;;11.32;10.63;;;;;;;;;;10237006;28;20107;-71
2023/08/01 12:22:36;;;;;;;10.98;10.27;;;;;;;;;;10223564;28;20427;-71
2023/08/01 12:32:38;;;;;;;13.38;12.13;;;;;;;;;;10624741;23;20046;-71
2023/08/01 12:37:34;;;;;;;11.60;10.80;;;;;;;;;;10235480;28;20049;-71
2023/08/01 12:42:30;;;;;;;10.48;9.77;;;;;;;;;;10174381;28;20054;-71
2023/08/01 12:47:27;;;;;;;10.70;9.93;;;;;;;;;;10224814;28;20053;-71
2023/08/01 12:52:27;;;;;;;12.45;11.65;;;;;;;;;;10199029;28;20042;-71
2023/08/01 13:02:28;;;;;;;14.07;13.18;;;;;;;;;;10682297;22;20050;-71
2023/08/01 13:07:24;;;;;;;12.02;11.15;;;;;;;;;;10198024;28;20113;-71
2023/08/01 13:12:21;;;;;;;12.18;11.38;;;;;;;;;;10198544;28;20046;-71
2023/08/01 13:17:17;;;;;;;13.10;12.20;;;;;;;;;;10198007;28;20046;-71
2023/08/01 13:22:13;;;;;;;14.68;13.77;;;;;;;;;;10197900;28;20082;-71
2023/08/01 13:27:09;;;;;;;12.82;11.82;;;;;;;;;;10197327;28;20566;-71
2023/08/01 13:32:06;;;;;;;14.40;13.30;;;;;;;;;;10197373;28;20054;-71
2023/08/01 13:37:02;;;;;;;13.70;12.77;;;;;;;;;;10196944;28;20470;-71
2023/08/01 13:41:59;;;;;;;12.93;12.13;;;;;;;;;;10180014;28;20081;-71
2023/08/01 13:51:54;;;;;;;14.50;13.60;;;;;;;;;;10177295;28;20057;-72
2023/08/01 13:56:51;;;;;;;14.18;13.18;;;;;;;;;;10217056;28;20053;-72
2023/08/01 14:01:48;;;;;;;14.52;13.32;;;;;;;;;;10182474;28;20162;-72
2023/08/01 14:06:44;;;;;;;14.30;13.40;;;;;;;;;;10211174;28;20454;-72
2023/08/01 14:11:41;;;;;;;16.38;15.18;;;;;;;;;;10156145;28;20467;-72
2023/08/01 14:16:37;;;;;;;11.13;10.15;;;;;;;;;;10181335;28;20057;-72
2023/08/01 14:21:34;;;;;;;13.05;12.15;;;;;;;;;;10156139;28;20731;-71
2023/08/01 14:31:36;;;;;;;10.57;9.88;;;;;;;;;;10388822;23;20057;-71
2023/08/01 14:46:49;;;;;;;11.32;10.63;;;;;;;;;;8345258;23;20038;-71
2023/08/01 14:51:45;;;;;;;10.23;9.50;;;;;;;;;;10234813;28;20065;-71
2023/08/01 14:56:41;;;;;;;9.35;8.68;;;;;;;;;;10231084;28;20080;-71
2023/08/01 15:01:38;;;;;;;10.18;8.95;;;;;;;;;;10233290;28;20069;-71
2023/08/01 15:06:34;;;;;;;8.85;8.05;;;;;;;;;;10233042;28;20057;-71
2023/08/01 15:11:31;;;;;;;9.10;8.45;;;;;;;;;;10228137;28;20057;-71
2023/08/01 15:16:27;;;;;;;8.05;7.45;;;;;;;;;;10221134;28;20049;-71
2023/08/01 15:21:26;;;;;;;8.25;7.50;;;;;;;;;;10232468;28;20123;-71
2023/08/01 15:26:22;;;;;;;9.32;8.43;;;;;;;;;;10233348;28;20400;-71
2023/08/01 15:31:18;;;;;;;9.55;8.75;;;;;;;;;;10233047;28;20478;-71
2023/08/01 15:36:15;;;;;;;10.30;8.60;;;;;;;;;;10232722;28;20466;-71
2023/08/01 15:41:11;;;;;;;9.48;8.50;;;;;;;;;;10291915;23;20508;-71
2023/08/01 15:46:08;;;;;;;9.27;8.35;;;;;;;;;;10212576;28;20052;-71
2023/08/01 15:51:05;;;;;;;9.32;8.63;;;;;;;;;;10193424;28;20495;-71
2023/08/01 15:56:03;;;;;;;8.68;7.93;;;;;;;;;;10198435;28;20067;-71
2023/08/01 16:01:00;;;;;;;9.60;8.02;;;;;;;;;;10231954;28;20462;-72
2023/08/01 16:05:57;;;;;;;7.32;6.60;;;;;;;;;;10218649;28;20091;-71
2023/08/01 16:10:53;;;;;;;6.15;5.55;;;;;;;;;;10221807;28;20684;-71
2023/08/01 16:15:50;;;;;;;8.18;6.78;;;;;;;;;;10215425;28;20065;-72
2023/08/01 16:20:46;;;;;;;6.88;6.20;;;;;;;;;;10208972;28;20053;-72
2023/08/01 16:25:43;;;;;;;6.40;5.80;;;;;;;;;;10221280;28;20041;-72
2023/08/01 16:30:39;;;;;;;5.80;5.00;;;;;;;;;;10200924;28;20423;-72
2023/08/01 16:35:35;;;;;;;7.07;4.90;;;;;;;;;;10202095;28;20049;-72
2023/08/01 16:40:32;;;;;;;5.80;5.30;;;;;;;;;;10182190;28;20708;-72
2023/08/01 16:45:28;;;;;;;6.13;5.50;;;;;;;;;;10201824;28;20049;-72
2023/08/01 16:50:24;;;;;;;6.80;5.25;;;;;;;;;;10181797;28;20161;-73
2023/08/01 16:55:20;;;;;;;6.80;5.15;;;;;;;;;;10230665;28;20415;-73
2023/08/01 17:00:17;;;;;;;6.10;5.00;;;;;;;;;;10237828;28;20092;-73
2023/08/01 17:05:14;;;;;;;7.13;5.22;;;;;;;;;;10221145;28;20053;-73
2023/08/01 17:10:10;;;;;;;8.35;6.07;;;;;;;;;;10202828;28;20049;-72
2023/08/01 17:15:06;;;;;;;6.25;5.65;;;;;;;;;;10214643;28;20427;-72
2023/08/01 17:20:03;;;;;;;8.05;6.50;;;;;;;;;;10236757;28;20103;-72
2023/08/01 17:25:00;;;;;;;6.18;5.65;;;;;;;;;;10237852;28;20152;-73
2023/08/01 17:29:56;;;;;;;6.65;5.85;;;;;;;;;;10200828;28;20062;-73
2023/08/01 17:34:52;;;;;;;6.75;6.03;;;;;;;;;;10206971;28;20104;-72
2023/08/01 17:39:48;;;;;;;7.93;6.82;;;;;;;;;;10196939;28;20524;-73
2023/08/01 17:44:48;;;;;;;7.93;7.15;;;;;;;;;;10210209;28;20049;-72
2023/08/01 17:49:45;;;;;;;8.73;7.38;;;;;;;;;;10273682;23;20045;-73
2023/08/01 17:54:41;;;;;;;6.05;5.55;;;;;;;;;;10209541;28;20084;-73
2023/08/01 17:59:38;;;;;;;7.18;6.57;;;;;;;;;;10236205;28;20068;-73
2023/08/01 18:04:35;;;;;;;8.05;7.25;;;;;;;;;;10234696;28;20088;-72
2023/08/01 18:09:31;;;;;;;8.00;7.40;;;;;;;;;;10235793;28;20541;-72
2023/08/01 18:14:27;;;;;;;8.25;7.55;;;;;;;;;;10234474;28;20438;-72
2023/08/01 18:19:24;;;;;;;8.48;7.78;;;;;;;;;;10235541;28;20058;-72
2023/08/01 18:24:20;;;;;;;9.70;8.95;;;;;;;;;;10208559;28;20061;-73
2023/08/01 18:29:16;;;;;;;9.48;8.57;;;;;;;;;;10205312;28;20566;-72
2023/08/01 18:34:15;;;;;;;8.70;7.80;;;;;;;;;;10204689;28;20533;-72
2023/08/01 18:39:12;;;;;;;8.32;7.55;;;;;;;;;;10206999;28;20058;-72
2023/08/01 18:44:08;;;;;;;8.50;7.60;;;;;;;;;;10203154;28;20053;-73
2023/08/01 18:49:04;;;;;;;9.48;8.57;;;;;;;;;;10198309;28;20112;-73
2023/08/01 18:54:03;;;;;;;8.55;7.45;;;;;;;;;;10202079;28;20057;-73
2023/08/01 18:59:40;;;;;;;10.15;8.65;;;;;;;;;;10231625;23;20053;-73
2023/08/01 19:04:54;;;;;;;8.75;8.05;;;;;;;;;;10163517;28;20088;-73
2023/08/01 19:09:51;;;;;;;7.72;7.13;;;;;;;;;;10194104;28;20108;-73
2023/08/01 19:14:47;;;;;;;9.98;9.07;;;;;;;;;;10207323;28;20065;-73
2023/08/01 19:19:43;;;;;;;9.57;8.77;;;;;;;;;;10233418;28;20507;-73
2023/08/01 19:24:40;;;;;;;8.55;7.72;;;;;;;;;;10212234;28;20045;-73
2023/08/01 19:29:36;;;;;;;8.73;7.50;;;;;;;;;;10222278;28;20755;-72
2023/08/01 19:34:32;;;;;;;9.15;8.35;;;;;;;;;;10205354;28;20058;-73
2023/08/01 19:39:30;;;;;;;8.27;7.57;;;;;;;;;;10206370;28;20108;-72
2023/08/01 19:44:27;;;;;;;9.63;8.60;;;;;;;;;;10204558;28;20072;-72
2023/08/01 19:49:24;;;;;;;9.18;8.35;;;;;;;;;;10196907;28;20094;-72
2023/08/01 19:54:20;;;;;;;10.65;9.68;;;;;;;;;;10187287;28;20072;-73
2023/08/01 19:59:47;;;;;;;7.93;7.32;;;;;;;;;;10222646;23;20546;-73
2023/08/01 20:04:49;;;;;;;8.57;7.88;;;;;;;;;;10197582;28;20132;-73
2023/08/01 20:09:45;;;;;;;9.82;8.88;;;;;;;;;;10240563;28;20589;-72
2023/08/01 20:14:42;;;;;;;8.27;7.47;;;;;;;;;;10217647;28;20419;-72
2023/08/01 20:19:39;;;;;;;9.30;8.45;;;;;;;;;;10226866;28;20499;-72
2023/08/01 20:24:36;;;;;;;8.30;7.40;;;;;;;;;;10212252;28;20057;-73
2023/08/01 20:29:33;;;;;;;8.30;7.50;;;;;;;;;;10221834;28;20100;-72
2023/08/01 20:34:29;;;;;;;8.07;7.47;;;;;;;;;;10211214;28;20533;-72
2023/08/01 20:39:26;;;;;;;8.52;7.60;;;;;;;;;;10200815;28;20070;-73
2023/08/01 20:44:22;;;;;;;7.60;7.00;;;;;;;;;;10209689;28;20393;-73
2023/08/01 20:49:19;;;;;;;8.93;7.35;;;;;;;;;;10208426;28;20041;-73
2023/08/01 20:54:15;;;;;;;8.25;7.40;;;;;;;;;;10206935;28;20514;-72
2023/08/01 20:59:12;;;;;;;7.55;6.82;;;;;;;;;;10198360;28;20112;-72
2023/08/01 21:04:08;;;;;;;8.20;7.50;;;;;;;;;;10202635;28;20049;-73
2023/08/01 21:09:05;;;;;;;7.10;6.40;;;;;;;;;;10197633;28;20397;-73
2023/08/01 21:14:01;;;;;;;7.47;6.60;;;;;;;;;;10208825;28;20050;-73
2023/08/01 21:18:57;;;;;;;7.40;6.70;;;;;;;;;;10237455;28;20061;-72
2023/08/01 21:23:54;;;;;;;7.00;6.30;;;;;;;;;;10236978;28;20061;-72
2023/08/01 21:28:50;;;;;;;6.72;6.03;;;;;;;;;;10237837;28;20057;-73
2023/08/01 21:33:46;;;;;;;10.43;7.68;;;;;;;;;;10211958;28;20069;-72
2023/08/01 21:38:42;;;;;;;8.10;6.90;;;;;;;;;;10229248;28;20073;-72
2023/08/01 21:43:39;;;;;;;8.38;6.55;;;;;;;;;;10201552;28;20042;-72
2023/08/01 21:48:35;;;;;;;7.88;7.18;;;;;;;;;;10229036;28;20042;-72
2023/08/01 21:53:32;;;;;;;8.70;7.30;;;;;;;;;;10200131;28;20400;-72
2023/08/01 21:58:28;;;;;;;8.18;6.78;;;;;;;;;;10221317;28;20042;-73
2023/08/01 22:03:25;;;;;;;9.63;7.03;;;;;;;;;;10198988;28;20049;-72
2023/08/01 22:08:21;;;;;;;10.18;8.00;;;;;;;;;;10215562;28;20529;-72
2023/08/01 22:13:17;;;;;;;8.00;7.20;;;;;;;;;;10197663;28;20076;-73
2023/08/01 22:18:23;;;;;;;8.88;7.80;;;;;;;;;;10204596;28;20049;-73
2023/08/01 22:23:21;;;;;;;10.88;7.00;;;;;;;;;;10197892;28;20499;-73
2023/08/01 22:28:19;;;;;;;9.15;6.88;;;;;;;;;;10235282;28;20400;-73
2023/08/01 22:33:15;;;;;;;7.53;6.72;;;;;;;;;;10219368;28;20058;-73
2023/08/01 22:38:11;;;;;;;8.60;7.25;;;;;;;;;;10234823;28;20184;-73
2023/08/01 22:43:08;;;;;;;8.63;6.85;;;;;;;;;;10215237;28;20058;-73
2023/08/01 22:48:04;;;;;;;10.25;7.40;;;;;;;;;;10234645;28;20053;-73
2023/08/01 22:53:00;;;;;;;8.02;7.25;;;;;;;;;;10200934;28;20571;-73
2023/08/01 22:57:57;;;;;;;8.40;6.60;;;;;;;;;;10226305;28;20516;-73
2023/08/01 23:02:53;;;;;;;7.88;7.13;;;;;;;;;;10194005;28;20082;-73
2023/08/01 23:07:49;;;;;;;8.20;7.40;;;;;;;;;;10214213;28;20093;-73
2023/08/01 23:12:49;;;;;;;7.82;7.00;;;;;;;;;;10177572;28;20060;-73
2023/08/01 23:17:45;;;;;;;7.90;7.07;;;;;;;;;;10230714;28;20046;-73
2023/08/01 23:22:42;;;;;;;8.43;7.63;;;;;;;;;;10234164;28;20598;-73
2023/08/01 23:27:38;;;;;;;8.23;6.72;;;;;;;;;;10233950;28;20049;-73
2023/08/01 23:32:35;;;;;;;7.93;7.07;;;;;;;;;;10235205;28;20050;-73
2023/08/01 23:37:31;;;;;;;8.77;6.78;;;;;;;;;;10237968;28;20045;-73
2023/08/01 23:42:27;;;;;;;8.13;7.25;;;;;;;;;;10228932;28;20105;-73
2023/08/01 23:47:24;;;;;;;8.52;7.75;;;;;;;;;;10236628;28;20320;-73
2023/08/01 23:52:20;;;;;;;10.75;9.23;;;;;;;;;;10202265;28;20140;-73
2023/08/01 23:57:17;;;;;;;10.77;9.70;;;;;;;;;;10235311;28;20045;-73
